Aviation Digital Data Service (ADDS)

Output produced by TAFs form (2043 UTC 16 December 2017)
found at http://www.aviationweather.gov/adds/tafs/
 
KAND 161956Z AUTO 23005KT 10SM CLR 09/M04 A3023 RMK AO2 SLP239 T00941039
KAND 161728Z 1618/1718 21005KT P6SM FEW250 
     FM170200 00000KT P6SM SCT250 
     FM171400 21005KT P6SM SCT050 BKN100